createdAt,value
2022-10-22T00:01:06.740Z,97240.81
2022-10-22T00:03:33.332Z,97244.53
2022-10-22T00:05:59.899Z,97243.75
2022-10-22T00:08:26.679Z,97248.56
2022-10-22T00:10:53.398Z,97235.22
2022-10-22T00:13:21.352Z,97233.63
2022-10-22T00:15:48.890Z,97230.72
2022-10-22T00:18:15.484Z,97241.44
2022-10-22T00:20:42.211Z,97240.47
2022-10-22T00:23:08.794Z,97234.38
2022-10-22T00:25:35.891Z,97239.22
2022-10-22T00:28:02.868Z,97227.72
2022-10-22T00:30:30.748Z,97230.66
2022-10-22T00:32:57.317Z,97229.63
2022-10-22T00:35:23.896Z,97220.03
2022-10-22T00:37:50.480Z,97216.81
2022-10-22T00:40:17.101Z,97227.84
2022-10-22T00:42:43.970Z,97231.25
2022-10-22T00:45:18.730Z,97227.53
2022-10-22T00:47:50.577Z,97228.66
2022-10-22T00:50:19.239Z,97221.78
2022-10-22T00:52:46.828Z,97229.47
2022-10-22T00:55:14.243Z,97224.13
2022-10-22T00:57:41.211Z,97222.81
2022-10-22T01:00:10.020Z,97225.31
2022-10-22T01:02:36.727Z,97221.50
2022-10-22T01:05:05.298Z,97219.91
2022-10-22T01:07:38.249Z,97218.25
2022-10-22T01:10:10.692Z,97225.38
2022-10-22T01:12:46.307Z,97237.75
2022-10-22T01:15:22.423Z,97243.31
2022-10-22T01:17:58.310Z,97224.13
2022-10-22T01:20:46.657Z,97222.34
2022-10-22T01:23:24.258Z,97209.19
2022-10-22T01:25:58.511Z,97215.19
2022-10-22T01:28:43.836Z,97219.78
2022-10-22T01:31:13.495Z,97218.91
2022-10-22T01:33:40.767Z,97217.41
2022-10-22T01:36:08.860Z,97223.88
2022-10-22T01:38:36.404Z,97218.56
2022-10-22T01:41:03.128Z,97216.91
2022-10-22T01:43:29.639Z,97217.28
2022-10-22T01:46:01.367Z,97211.09
2022-10-22T01:48:40.336Z,97221.50
2022-10-22T01:51:22.390Z,97229.22
2022-10-22T01:53:52.828Z,97232.56
2022-10-22T01:56:36.324Z,97235.34
2022-10-22T01:59:07.995Z,97231.41
2022-10-22T02:01:46.312Z,97232.91
2022-10-22T02:04:19.057Z,97216.19
2022-10-22T02:06:47.848Z,97222.53
2022-10-22T02:09:16.408Z,97227.75
2022-10-22T02:11:44.590Z,97217.00
2022-10-22T02:14:12.621Z,97211.97
2022-10-22T02:16:44.324Z,97202.84
2022-10-22T02:19:19.267Z,97204.81
2022-10-22T02:21:45.998Z,97198.13
2022-10-22T02:24:13.143Z,97195.53
2022-10-22T02:26:46.292Z,97188.31
2022-10-22T02:29:18.699Z,97197.28
2022-10-22T02:31:48.826Z,97202.28
2022-10-22T02:34:21.612Z,97204.94
2022-10-22T02:36:50.522Z,97222.19
2022-10-22T02:39:19.094Z,97230.66
2022-10-22T02:41:45.723Z,97231.34
2022-10-22T02:44:12.263Z,97242.41
2022-10-22T02:46:40.141Z,97246.81
2022-10-22T02:49:08.153Z,97258.22
2022-10-22T02:51:34.770Z,97266.00
2022-10-22T02:54:01.384Z,97267.84
2022-10-22T02:56:27.946Z,97271.59
2022-10-22T02:58:54.477Z,97264.09
2022-10-22T03:01:21.338Z,97250.94
2022-10-22T03:03:47.943Z,97251.91
2022-10-22T03:06:16.261Z,97256.63
2022-10-22T03:08:42.929Z,97254.16
2022-10-22T03:11:09.617Z,97253.88
2022-10-22T03:13:36.345Z,97256.97
2022-10-22T03:16:02.926Z,97240.38
2022-10-22T03:18:29.454Z,97242.50
2022-10-22T03:21:07.780Z,97229.28
2022-10-22T03:23:36.336Z,97231.94
2022-10-22T03:26:04.367Z,97226.44
2022-10-22T03:28:30.948Z,97233.59
2022-10-22T03:30:57.504Z,97229.50
2022-10-22T03:33:24.051Z,97235.03
2022-10-22T03:35:50.754Z,97227.56
2022-10-22T03:38:17.360Z,97228.06
2022-10-22T03:40:46.401Z,97238.31
2022-10-22T03:43:13.407Z,97246.50
2022-10-22T03:45:39.996Z,97227.28
2022-10-22T03:48:06.746Z,97216.53
2022-10-22T03:50:33.427Z,97205.44
2022-10-22T03:52:59.997Z,97212.31
2022-10-22T03:55:26.731Z,97233.31
2022-10-22T03:57:54.615Z,97253.22
2022-10-22T04:00:21.429Z,97268.81
2022-10-22T04:02:47.985Z,97276.09
2022-10-22T04:07:46.185Z,97304.97
2022-10-22T04:10:12.739Z,97303.50
2022-10-22T04:12:39.303Z,97300.88
2022-10-22T04:15:08.899Z,97304.97
2022-10-22T04:17:36.151Z,97299.28
2022-10-22T04:20:04.816Z,97294.22
2022-10-22T04:22:33.661Z,97291.09
2022-10-22T04:25:00.306Z,97288.03
2022-10-22T04:27:30.573Z,97275.94
2022-10-22T04:29:57.181Z,97270.75
2022-10-22T04:32:25.205Z,97282.63
2022-10-22T04:34:51.809Z,97294.72
2022-10-22T04:37:18.388Z,97291.94
2022-10-22T04:39:44.935Z,97295.53
2022-10-22T04:42:11.564Z,97287.91
2022-10-22T04:44:38.249Z,97281.22
2022-10-22T04:47:04.885Z,97265.25
2022-10-22T04:49:32.815Z,97272.09
2022-10-22T04:51:59.383Z,97283.34
2022-10-22T04:54:29.057Z,97297.84
2022-10-22T04:56:58.897Z,97299.78
2022-10-22T04:59:25.470Z,97291.16
2022-10-22T05:01:52.021Z,97301.13
2022-10-22T05:04:18.599Z,97306.19
2022-10-22T05:06:46.937Z,97308.91
2022-10-22T05:09:16.558Z,97307.28
2022-10-22T05:11:44.817Z,97324.56
2022-10-22T05:14:11.970Z,97319.66
2022-10-22T05:16:38.820Z,97335.63
2022-10-22T05:19:07.032Z,97339.03
2022-10-22T05:21:34.588Z,97335.94
2022-10-22T05:24:02.517Z,97333.16
2022-10-22T05:26:29.832Z,97338.34
2022-10-22T05:28:56.636Z,97354.63
2022-10-22T05:31:23.736Z,97364.72
2022-10-22T05:33:50.271Z,97368.13
2022-10-22T05:36:19.334Z,97363.34
2022-10-22T05:38:46.108Z,97370.22
2022-10-22T05:41:15.397Z,97369.00
2022-10-22T05:43:42.062Z,97385.72
2022-10-22T05:46:10.223Z,97394.84
2022-10-22T05:48:36.852Z,97398.00
2022-10-22T05:51:04.537Z,97390.69
2022-10-22T05:53:32.016Z,97400.97
2022-10-22T05:56:00.953Z,97402.16
2022-10-22T05:58:29.071Z,97390.13
2022-10-22T06:01:00.507Z,97377.72
2022-10-22T06:03:27.068Z,97388.38
2022-10-22T06:05:54.154Z,97383.34
2022-10-22T06:08:20.797Z,97371.47
2022-10-22T06:10:47.387Z,97376.91
2022-10-22T06:13:13.913Z,97381.13
2022-10-22T06:15:41.784Z,97382.13
2022-10-22T06:18:08.314Z,97383.25
2022-10-22T06:20:35.283Z,97387.69
2022-10-22T06:23:01.837Z,97383.06
2022-10-22T06:25:28.404Z,97391.25
2022-10-22T06:27:54.947Z,97391.78
2022-10-22T06:30:21.491Z,97388.06
2022-10-22T06:32:49.362Z,97387.28
2022-10-22T06:35:16.084Z,97392.66
2022-10-22T06:37:43.011Z,97401.50
2022-10-22T06:40:10.874Z,97404.56
2022-10-22T06:42:37.424Z,97407.06
2022-10-22T06:45:05.266Z,97404.66
2022-10-22T06:47:31.846Z,97404.53
2022-10-22T06:49:59.723Z,97417.13
2022-10-22T06:52:26.268Z,97422.84
2022-10-22T06:54:52.837Z,97427.63
2022-10-22T06:57:19.389Z,97430.97
2022-10-22T06:59:46.396Z,97437.53
2022-10-22T07:02:13.370Z,97438.63
2022-10-22T07:04:39.913Z,97436.56
2022-10-22T07:07:07.825Z,97434.16
2022-10-22T07:09:34.353Z,97446.19
2022-10-22T07:12:00.929Z,97455.28
2022-10-22T07:14:27.442Z,97456.78
2022-10-22T07:16:54.140Z,97462.06
2022-10-22T07:19:20.689Z,97470.91
2022-10-22T07:21:47.243Z,97479.59
2022-10-22T07:24:15.142Z,97487.19
2022-10-22T07:26:41.732Z,97489.69
2022-10-22T07:29:08.295Z,97507.03
2022-10-22T07:31:34.854Z,97515.84
2022-10-22T07:34:01.447Z,97508.19
2022-10-22T07:36:28.006Z,97509.22
2022-10-22T07:38:56.479Z,97512.13
2022-10-22T07:41:24.862Z,97506.72
2022-10-22T07:43:51.450Z,97518.22
2022-10-22T07:46:18.268Z,97525.44
2022-10-22T07:48:44.831Z,97528.22
2022-10-22T07:51:11.474Z,97533.31
2022-10-22T07:53:38.231Z,97521.88
2022-10-22T07:56:05.173Z,97531.50
2022-10-22T07:58:33.367Z,97533.47
2022-10-22T08:01:02.030Z,97539.00
2022-10-22T08:03:29.265Z,97536.91
2022-10-22T08:05:56.239Z,97539.72
2022-10-22T08:08:25.834Z,97539.09
2022-10-22T08:10:57.713Z,97546.59
2022-10-22T08:13:24.260Z,97551.50
2022-10-22T08:15:53.680Z,97550.03
2022-10-22T08:18:23.135Z,97562.75
2022-10-22T08:20:49.717Z,97562.44
2022-10-22T08:23:16.251Z,97568.97
2022-10-22T08:25:42.824Z,97566.44
2022-10-22T08:28:09.818Z,97565.88
2022-10-22T08:30:36.840Z,97559.66
2022-10-22T08:33:05.084Z,97549.34
2022-10-22T08:35:31.821Z,97543.31
2022-10-22T08:37:58.411Z,97548.34
2022-10-22T08:40:30.367Z,97554.94
2022-10-22T08:43:18.254Z,97562.22
2022-10-22T08:45:56.014Z,97565.31
2022-10-22T08:48:34.434Z,97571.69
2022-10-22T08:51:01.110Z,97577.16
2022-10-22T08:53:34.287Z,97571.97
2022-10-22T08:56:00.866Z,97569.19
2022-10-22T08:58:35.755Z,97561.22
2022-10-22T09:01:07.349Z,97557.94
2022-10-22T09:03:45.997Z,97552.22
2022-10-22T09:06:15.609Z,97555.84
2022-10-22T09:08:44.726Z,97559.78
2022-10-22T09:11:19.827Z,97568.66
2022-10-22T09:13:47.833Z,97586.66
2022-10-22T09:16:18.111Z,97584.03
2022-10-22T09:18:57.132Z,97590.75
2022-10-22T09:21:33.851Z,97605.47
2022-10-22T09:24:04.928Z,97601.22
2022-10-22T09:26:34.074Z,97604.94
2022-10-22T09:29:01.259Z,97596.63
2022-10-22T09:31:31.194Z,97598.59
2022-10-22T09:34:00.213Z,97596.44
2022-10-22T09:36:29.198Z,97594.50
2022-10-22T09:38:55.955Z,97591.06
2022-10-22T09:41:25.604Z,97591.56
2022-10-22T09:43:52.181Z,97595.00
2022-10-22T09:46:20.755Z,97604.97
2022-10-22T09:48:50.093Z,97607.59
2022-10-22T09:51:21.797Z,97616.09
2022-10-22T09:53:56.360Z,97614.91
2022-10-22T09:56:26.497Z,97620.97
2022-10-22T09:58:55.559Z,97621.19
2022-10-22T10:01:25.679Z,97624.94
2022-10-22T10:03:53.146Z,97624.28
2022-10-22T10:06:22.968Z,97620.53
2022-10-22T10:08:50.237Z,97622.16
2022-10-22T10:11:28.950Z,97620.50
2022-10-22T10:14:08.476Z,97630.66
2022-10-22T10:16:55.560Z,97629.03
2022-10-22T10:19:41.759Z,97630.50
2022-10-22T10:22:21.704Z,97635.75
2022-10-22T10:24:59.146Z,97633.28
2022-10-22T10:27:29.977Z,97628.38
2022-10-22T10:30:03.945Z,97624.28
2022-10-22T10:32:51.588Z,97622.66
2022-10-22T10:35:25.323Z,97624.41
2022-10-22T10:38:09.152Z,97630.63
2022-10-22T10:40:44.907Z,97629.47
2022-10-22T10:43:17.829Z,97616.50
2022-10-22T10:45:57.441Z,97622.03
2022-10-22T10:48:40.631Z,97614.47
2022-10-22T10:51:21.956Z,97609.50
2022-10-22T10:54:01.291Z,97605.31
2022-10-22T10:56:39.092Z,97602.34
2022-10-22T10:59:18.079Z,97603.47
2022-10-22T11:01:59.474Z,97603.97
2022-10-22T11:05:02.270Z,97604.50
2022-10-22T11:07:36.586Z,97605.31
2022-10-22T11:10:09.694Z,97608.56
2022-10-22T11:12:42.414Z,97604.28
2022-10-22T11:15:19.115Z,97606.28
2022-10-22T11:17:48.177Z,97609.22
2022-10-22T11:20:19.370Z,97603.28
2022-10-22T11:23:17.519Z,97608.34
2022-10-22T11:25:43.381Z,97615.53
2022-10-22T11:28:17.244Z,97610.28
2022-10-22T11:30:48.667Z,97602.66
2022-10-22T11:33:19.133Z,97603.06
2022-10-22T11:35:47.028Z,97605.97
2022-10-22T11:38:17.358Z,97608.56
2022-10-22T11:40:47.542Z,97604.41
2022-10-22T11:43:27.196Z,97605.88
2022-10-22T11:46:00.574Z,97610.41
2022-10-22T11:48:34.313Z,97607.81
2022-10-22T11:51:01.990Z,97606.53
2022-10-22T11:53:33.073Z,97598.03
2022-10-22T11:56:22.059Z,97597.88
2022-10-22T11:58:52.251Z,97603.66
2022-10-22T12:01:27.371Z,97598.69
2022-10-22T12:04:22.295Z,97592.38
2022-10-22T12:07:00.553Z,97593.72
2022-10-22T12:09:30.653Z,97587.25
2022-10-22T12:12:04.311Z,97587.06
2022-10-22T12:14:34.459Z,97593.19
2022-10-22T12:17:08.334Z,97590.63
2022-10-22T12:19:37.930Z,97590.22
2022-10-22T12:22:14.789Z,97584.47
2022-10-22T12:24:46.004Z,97584.59
2022-10-22T12:27:22.221Z,97583.56
2022-10-22T12:29:54.648Z,97579.81
2022-10-22T12:32:21.305Z,97579.69
2022-10-22T12:37:17.538Z,97575.81
2022-10-22T12:39:46.788Z,97572.94
2022-10-22T12:42:15.062Z,97575.19
2022-10-22T12:44:43.372Z,97567.75
2022-10-22T12:47:15.478Z,97571.63
2022-10-22T12:49:44.505Z,97572.41
2022-10-22T12:52:14.664Z,97562.22
2022-10-22T12:54:41.669Z,97566.16
2022-10-22T12:57:14.663Z,97565.38
2022-10-22T12:59:47.231Z,97566.75
2022-10-22T13:02:19.769Z,97558.88
2022-10-22T13:05:13.747Z,97564.50
2022-10-22T13:07:43.632Z,97565.94
2022-10-22T13:10:18.788Z,97563.66
2022-10-22T13:12:50.224Z,97566.66
2022-10-22T13:15:23.028Z,97572.56
2022-10-22T13:17:49.738Z,97571.97
2022-10-22T13:20:19.643Z,97573.66
2022-10-22T13:22:58.346Z,97572.19
2022-10-22T13:25:27.271Z,97566.50
2022-10-22T13:27:57.377Z,97570.13
2022-10-22T13:30:25.895Z,97575.47
2022-10-22T13:32:54.791Z,97575.94
2022-10-22T13:35:24.384Z,97569.66
2022-10-22T13:37:50.939Z,97578.72
2022-10-22T13:40:18.003Z,97569.81
2022-10-22T13:42:44.842Z,97574.47
2022-10-22T13:45:13.576Z,97571.44
2022-10-22T13:47:40.968Z,97568.28
2022-10-22T13:50:13.756Z,97566.25
2022-10-22T13:52:43.722Z,97571.56
2022-10-22T13:55:16.568Z,97573.53
2022-10-22T13:57:43.367Z,97582.00
2022-10-22T14:00:15.061Z,97574.00
2022-10-22T14:02:42.079Z,97582.69
2022-10-22T14:05:10.131Z,97581.00
2022-10-22T14:07:37.423Z,97577.59
2022-10-22T14:10:13.453Z,97576.94
2022-10-22T14:12:40.027Z,97571.09
2022-10-22T14:15:07.873Z,97571.47
2022-10-22T14:17:35.836Z,97575.56
2022-10-22T14:20:02.403Z,97569.97
2022-10-22T14:22:30.483Z,97574.53
2022-10-22T14:24:57.112Z,97569.81
2022-10-22T14:27:23.676Z,97578.19
2022-10-22T14:29:50.234Z,97578.06
2022-10-22T14:32:18.835Z,97578.38
2022-10-22T14:34:47.527Z,97576.09
2022-10-22T14:37:16.856Z,97580.53
2022-10-22T14:39:43.707Z,97586.66
2022-10-22T14:42:11.345Z,97579.78
2022-10-22T14:44:37.931Z,97582.63
2022-10-22T14:47:04.658Z,97584.38
2022-10-22T14:49:31.217Z,97583.59
2022-10-22T14:51:59.340Z,97598.88
2022-10-22T14:54:26.121Z,97588.56
2022-10-22T14:56:52.671Z,97586.88
2022-10-22T14:59:19.229Z,97585.56
2022-10-22T15:01:45.820Z,97588.72
2022-10-22T15:04:12.402Z,97590.75
2022-10-22T15:06:38.979Z,97589.88
2022-10-22T15:09:06.945Z,97602.34
2022-10-22T15:11:33.568Z,97593.59
2022-10-22T15:14:00.117Z,97603.13
2022-10-22T15:16:26.690Z,97598.56
2022-10-22T15:18:53.278Z,97604.34
2022-10-22T15:21:21.947Z,97607.13
2022-10-22T15:23:49.266Z,97613.75
2022-10-22T15:26:17.373Z,97617.28
2022-10-22T15:28:43.933Z,97619.91
2022-10-22T15:31:13.502Z,97620.25
2022-10-22T15:33:41.417Z,97628.06
2022-10-22T15:36:12.364Z,97632.00
2022-10-22T15:38:39.245Z,97634.53
2022-10-22T15:41:07.656Z,97633.94
2022-10-22T15:43:35.940Z,97639.72
2022-10-22T15:46:10.989Z,97636.47
2022-10-22T15:48:37.583Z,97639.81
2022-10-22T15:51:08.644Z,97650.16
2022-10-22T15:53:35.231Z,97657.16
2022-10-22T15:56:01.838Z,97647.53
2022-10-22T15:58:28.394Z,97653.06
2022-10-22T16:01:03.116Z,97659.28
2022-10-22T16:06:02.099Z,97664.50
2022-10-22T16:08:28.719Z,97665.78
2022-10-22T16:10:55.326Z,97669.53
2022-10-22T16:13:22.610Z,97671.94
2022-10-22T16:15:49.321Z,97673.44
2022-10-22T16:18:17.337Z,97670.16
2022-10-22T16:20:44.046Z,97676.50
2022-10-22T16:23:10.713Z,97677.00
2022-10-22T16:25:38.318Z,97680.69
2022-10-22T16:28:05.492Z,97679.19
2022-10-22T16:30:32.836Z,97683.63
2022-10-22T16:32:59.417Z,97686.63
2022-10-22T16:35:28.343Z,97686.00
2022-10-22T16:37:54.909Z,97696.19
2022-10-22T16:40:21.677Z,97694.25
2022-10-22T16:42:48.276Z,97700.56
2022-10-22T16:47:46.788Z,97698.63
2022-10-22T16:50:13.442Z,97697.75
2022-10-22T16:52:41.510Z,97697.34
2022-10-22T16:55:08.992Z,97705.97
2022-10-22T16:57:35.745Z,97713.66
2022-10-22T17:00:02.384Z,97713.59
2022-10-22T17:02:28.955Z,97713.19
2022-10-22T17:04:55.527Z,97706.09
2022-10-22T17:07:22.117Z,97706.28
2022-10-22T17:09:50.043Z,97717.38
2022-10-22T17:12:16.749Z,97721.59
2022-10-22T17:14:43.309Z,97730.72
2022-10-22T17:17:09.876Z,97739.34
2022-10-22T17:19:36.437Z,97731.13
2022-10-22T17:22:02.993Z,97730.72
2022-10-22T17:24:29.523Z,97733.81
2022-10-22T17:26:57.513Z,97743.44
2022-10-22T17:29:24.068Z,97746.50
2022-10-22T17:31:50.687Z,97744.66
2022-10-22T17:34:17.426Z,97742.59
2022-10-22T17:36:44.605Z,97747.28
2022-10-22T17:39:16.183Z,97746.69
2022-10-22T17:41:42.757Z,97753.97
2022-10-22T17:44:17.036Z,97756.72
2022-10-22T17:46:43.865Z,97751.19
2022-10-22T17:49:15.786Z,97755.47
2022-10-22T17:51:42.164Z,97754.97
2022-10-22T17:54:10.076Z,97752.28
2022-10-22T17:56:37.717Z,97754.00
2022-10-22T17:59:04.300Z,97760.47
2022-10-22T18:01:35.123Z,97754.19
2022-10-22T18:04:03.573Z,97762.06
2022-10-22T18:06:30.983Z,97761.78
2022-10-22T18:08:57.829Z,97763.47
2022-10-22T18:11:27.022Z,97763.47
2022-10-22T18:13:56.003Z,97764.00
2022-10-22T18:16:22.767Z,97758.88
2022-10-22T18:18:52.683Z,97755.28
2022-10-22T18:21:20.352Z,97752.38
2022-10-22T18:23:47.088Z,97759.84
2022-10-22T18:26:14.055Z,97754.63
2022-10-22T18:28:40.987Z,97752.81
2022-10-22T18:31:09.170Z,97763.31
2022-10-22T18:33:36.506Z,97762.72
2022-10-22T18:36:06.816Z,97769.22
2022-10-22T18:38:33.498Z,97772.28
2022-10-22T18:41:00.085Z,97768.72
2022-10-22T18:43:26.723Z,97772.78
2022-10-22T18:45:53.284Z,97778.94
2022-10-22T18:48:20.780Z,97782.06
2022-10-22T18:50:47.394Z,97780.44
2022-10-22T18:53:16.740Z,97784.03
2022-10-22T18:55:43.505Z,97783.50
2022-10-22T18:58:10.042Z,97789.34
2022-10-22T19:00:36.618Z,97792.38
2022-10-22T19:03:03.300Z,97799.06
2022-10-22T19:05:29.968Z,97792.66
2022-10-22T19:07:56.543Z,97785.81
2022-10-22T19:10:24.471Z,97792.63
2022-10-22T19:12:51.068Z,97797.00
2022-10-22T19:15:17.886Z,97795.44
2022-10-22T19:17:44.671Z,97791.09
2022-10-22T19:20:11.457Z,97791.19
2022-10-22T19:22:38.038Z,97793.50
2022-10-22T19:25:07.110Z,97791.56
2022-10-22T19:27:37.616Z,97803.13
2022-10-22T19:30:04.607Z,97801.56
2022-10-22T19:32:31.366Z,97804.84
2022-10-22T19:34:57.985Z,97803.72
2022-10-22T19:37:24.651Z,97805.44
2022-10-22T19:39:51.442Z,97809.06
2022-10-22T19:42:18.002Z,97802.28
2022-10-22T19:44:45.949Z,97795.91
2022-10-22T19:47:12.528Z,97803.09
2022-10-22T19:49:39.068Z,97802.88
2022-10-22T19:52:05.722Z,97795.47
2022-10-22T19:54:32.261Z,97800.16
2022-10-22T19:56:58.932Z,97801.03
2022-10-22T19:59:28.552Z,97798.00
2022-10-22T20:01:59.329Z,97796.28
2022-10-22T20:04:26.025Z,97792.22
2022-10-22T20:06:52.592Z,97791.66
2022-10-22T20:09:19.159Z,97798.28
2022-10-22T20:11:45.882Z,97800.97
2022-10-22T20:14:13.003Z,97811.38
2022-10-22T20:16:40.503Z,97809.72
2022-10-22T20:19:10.293Z,97798.94
2022-10-22T20:21:36.981Z,97810.84
2022-10-22T20:24:04.341Z,97801.56
2022-10-22T20:26:30.937Z,97801.94
2022-10-22T20:28:58.142Z,97801.09
2022-10-22T20:31:26.384Z,97802.16
2022-10-22T20:33:55.142Z,97807.97
2022-10-22T20:36:23.982Z,97808.50
2022-10-22T20:38:51.575Z,97813.50
2022-10-22T20:41:20.776Z,97810.41
2022-10-22T20:43:49.317Z,97815.91
2022-10-22T20:46:18.723Z,97818.38
2022-10-22T20:48:45.661Z,97816.75
2022-10-22T20:51:12.964Z,97807.69
2022-10-22T20:53:40.876Z,97812.91
2022-10-22T20:56:08.097Z,97810.72
2022-10-22T20:58:35.515Z,97811.25
2022-10-22T21:01:02.143Z,97815.75
2022-10-22T21:03:28.729Z,97815.44
2022-10-22T21:05:55.374Z,97816.78
2022-10-22T21:08:21.934Z,97828.13
2022-10-22T21:10:49.885Z,97828.69
2022-10-22T21:13:16.849Z,97833.19
2022-10-22T21:15:43.463Z,97828.28
2022-10-22T21:18:10.036Z,97832.09
2022-10-22T21:20:38.274Z,97838.16
2022-10-22T21:23:05.017Z,97831.81
2022-10-22T21:25:31.631Z,97836.03
2022-10-22T21:27:59.535Z,97840.31
2022-10-22T21:30:26.200Z,97841.13
2022-10-22T21:32:52.777Z,97842.19
2022-10-22T21:35:19.369Z,97839.97
2022-10-22T21:37:45.907Z,97836.72
2022-10-22T21:40:12.719Z,97826.31
2022-10-22T21:42:39.373Z,97821.66
2022-10-22T21:45:12.184Z,97825.81
2022-10-22T21:47:41.140Z,97820.84
2022-10-22T21:50:08.508Z,97822.44
2022-10-22T21:52:35.092Z,97823.25
2022-10-22T21:55:01.657Z,97826.63
2022-10-22T21:57:28.220Z,97828.88
2022-10-22T21:59:54.796Z,97826.13
2022-10-22T22:02:22.732Z,97820.25
2022-10-22T22:04:49.286Z,97821.38
2022-10-22T22:07:15.963Z,97828.06
2022-10-22T22:09:42.518Z,97829.69
2022-10-22T22:12:09.073Z,97821.97
2022-10-22T22:14:35.648Z,97817.34
2022-10-22T22:17:02.225Z,97819.81
2022-10-22T22:19:30.156Z,97808.81
2022-10-22T22:21:56.743Z,97807.47
2022-10-22T22:24:23.342Z,97811.03
2022-10-22T22:26:49.915Z,97813.00
2022-10-22T22:29:16.482Z,97810.94
2022-10-22T22:31:43.057Z,97809.06
2022-10-22T22:34:12.524Z,97807.91
2022-10-22T22:36:42.085Z,97802.31
2022-10-22T22:39:11.704Z,97801.25
2022-10-22T22:41:38.345Z,97805.72
2022-10-22T22:44:05.610Z,97807.34
2022-10-22T22:46:32.233Z,97804.56
2022-10-22T22:48:58.857Z,97807.91
2022-10-22T22:51:25.484Z,97800.97
2022-10-22T22:53:53.476Z,97794.81
2022-10-22T22:56:21.722Z,97803.44
2022-10-22T22:58:48.724Z,97803.53
2022-10-22T23:01:17.764Z,97808.50
2022-10-22T23:03:45.195Z,97800.44
2022-10-22T23:06:13.137Z,97795.78
2022-10-22T23:08:39.927Z,97791.69
2022-10-22T23:11:10.631Z,97787.31
2022-10-22T23:13:38.432Z,97791.47
2022-10-22T23:16:06.457Z,97791.16
2022-10-22T23:18:33.058Z,97790.09
2022-10-22T23:21:03.843Z,97784.66
2022-10-22T23:23:30.415Z,97788.56
2022-10-22T23:28:29.992Z,97787.44
2022-10-22T23:30:56.562Z,97789.72
2022-10-22T23:33:23.113Z,97779.53
2022-10-22T23:35:49.660Z,97783.88
2022-10-22T23:38:16.212Z,97783.34
2022-10-22T23:40:42.815Z,97776.97
2022-10-22T23:43:09.344Z,97776.69
2022-10-22T23:45:37.302Z,97764.88
2022-10-22T23:48:04.221Z,97757.19
2022-10-22T23:50:30.803Z,97756.88
2022-10-22T23:52:57.377Z,97759.09
2022-10-22T23:55:24.054Z,97757.41
2022-10-22T23:57:50.650Z,97755.81
